createdAt,value
2019-06-01T00:00:11.298Z,98493.27
2019-06-01T00:02:35.678Z,98497.12
2019-06-01T00:05:07.634Z,98494.40
2019-06-01T00:07:35.926Z,98489.61
2019-06-01T00:10:06.136Z,98489.80
2019-06-01T00:12:34.445Z,98488.75
2019-06-01T00:15:03.490Z,98486.17
2019-06-01T00:17:31.785Z,98484.05
2019-06-01T00:20:01.505Z,98480.28
2019-06-01T00:22:29.764Z,98486.65
2019-06-01T00:24:58.104Z,98481.41
2019-06-01T00:27:26.394Z,98482.08
2019-06-01T00:29:54.729Z,98478.56
2019-06-01T00:32:23.064Z,98473.91
2019-06-01T00:34:51.885Z,98474.52
2019-06-01T00:37:20.391Z,98474.93
2019-06-01T00:39:49.877Z,98475.17
2019-06-01T00:42:18.904Z,98475.18
2019-06-01T00:44:48.460Z,98469.66
2019-06-01T00:47:16.955Z,98470.23
2019-06-01T00:49:45.265Z,98463.69
2019-06-01T00:52:13.588Z,98463.45
2019-06-01T00:54:43.094Z,98461.31
2019-06-01T00:57:11.584Z,98457.15
2019-06-01T00:59:39.872Z,98460.36
2019-06-01T01:02:08.358Z,98457.39
2019-06-01T01:04:36.647Z,98461.47
2019-06-01T01:07:05.177Z,98460.06
2019-06-01T01:09:33.481Z,98463.83
2019-06-01T01:12:01.808Z,98463.34
2019-06-01T01:14:33.460Z,98465.31
2019-06-01T01:17:01.763Z,98470.91
2019-06-01T01:19:30.121Z,98470.30
2019-06-01T01:21:59.003Z,98464.06
2019-06-01T01:24:27.357Z,98462.30
2019-06-01T01:26:56.811Z,98473.47
2019-06-01T01:29:25.299Z,98462.97
2019-06-01T01:31:53.625Z,98461.53
2019-06-01T01:34:21.990Z,98460.98
2019-06-01T01:36:50.320Z,98460.48
2019-06-01T01:39:18.665Z,98462.98
2019-06-01T01:41:48.016Z,98452.18
2019-06-01T01:44:16.334Z,98462.64
2019-06-01T01:46:44.905Z,98461.09
2019-06-01T01:49:13.189Z,98459.33
2019-06-01T01:51:41.612Z,98459.38
2019-06-01T01:54:09.998Z,98451.84
2019-06-01T01:56:38.340Z,98454.16
2019-06-01T01:59:06.660Z,98454.61
2019-06-01T02:01:34.938Z,98455.35
2019-06-01T02:04:03.460Z,98456.88
2019-06-01T02:06:31.743Z,98456.88
2019-06-01T02:09:01.756Z,98450.09
2019-06-01T02:11:30.292Z,98451.64
2019-06-01T02:13:59.779Z,98450.96
2019-06-01T02:16:28.303Z,98453.05
2019-06-01T02:18:57.505Z,98451.99
2019-06-01T02:21:26.623Z,98446.09
2019-06-01T02:23:55.034Z,98445.92
2019-06-01T02:26:23.327Z,98445.30
2019-06-01T02:28:53.124Z,98443.89
2019-06-01T02:31:37.455Z,98443.53
2019-06-01T02:33:51.573Z,98443.03
2019-06-01T02:36:19.868Z,98442.08
2019-06-01T02:38:48.286Z,98435.91
2019-06-01T02:41:16.894Z,98442.59
2019-06-01T02:43:45.418Z,98442.54
2019-06-01T02:46:13.703Z,98437.12
2019-06-01T02:48:42.012Z,98439.58
2019-06-01T02:51:10.375Z,98438.87
2019-06-01T02:53:38.683Z,98442.18
2019-06-01T02:56:07.052Z,98440.32
2019-06-01T02:58:35.667Z,98443.33
2019-06-01T03:01:13.167Z,98438.50
2019-06-01T03:03:42.142Z,98437.73
2019-06-01T03:06:12.719Z,98435.12
2019-06-01T03:08:41.946Z,98444.41
2019-06-01T03:11:11.836Z,98445.00
2019-06-01T03:13:40.493Z,98450.25
2019-06-01T03:16:10.064Z,98442.97
2019-06-01T03:18:39.939Z,98446.31
2019-06-01T03:21:09.299Z,98451.32
2019-06-01T03:23:39.127Z,98452.13
2019-06-01T03:26:08.774Z,98448.94
2019-06-01T03:28:40.171Z,98442.46
2019-06-01T03:31:10.487Z,98434.34
2019-06-01T03:33:38.652Z,98440.91
2019-06-01T03:36:07.115Z,98436.42
2019-06-01T03:38:35.486Z,98445.34
2019-06-01T03:41:04.206Z,98444.66
2019-06-01T03:43:32.624Z,98442.34
2019-06-01T03:46:02.478Z,98442.55
2019-06-01T03:48:30.973Z,98441.24
2019-06-01T03:50:59.366Z,98438.99
2019-06-01T03:53:27.682Z,98440.98
2019-06-01T03:55:55.991Z,98441.20
2019-06-01T03:58:24.342Z,98436.03
2019-06-01T04:00:52.658Z,98437.34
2019-06-01T04:03:21.111Z,98440.65
2019-06-01T04:05:49.595Z,98441.66
2019-06-01T04:08:17.878Z,98439.13
2019-06-01T04:10:46.227Z,98441.70
2019-06-01T04:13:14.527Z,98436.08
2019-06-01T04:15:42.985Z,98434.17
2019-06-01T04:18:13.916Z,98438.63
2019-06-01T04:20:42.267Z,98436.33
2019-06-01T04:23:10.779Z,98434.22
2019-06-01T04:25:39.138Z,98432.56
2019-06-01T04:28:10.285Z,98439.55
2019-06-01T04:30:38.684Z,98440.65
2019-06-01T04:33:07.078Z,98436.03
2019-06-01T04:35:35.491Z,98438.44
2019-06-01T04:38:05.009Z,98436.63
2019-06-01T04:40:33.459Z,98438.84
2019-06-01T04:43:01.801Z,98439.60
2019-06-01T04:45:30.102Z,98441.03
2019-06-01T04:47:58.483Z,98445.80
2019-06-01T04:50:26.842Z,98442.84
2019-06-01T04:52:55.166Z,98448.52
2019-06-01T04:55:23.451Z,98445.92
2019-06-01T04:57:51.784Z,98442.91
2019-06-01T05:00:27.252Z,98446.33
2019-06-01T05:03:04.477Z,98450.74
2019-06-01T05:05:20.527Z,98450.74
2019-06-01T05:07:48.926Z,98453.15
2019-06-01T05:10:17.309Z,98451.69
2019-06-01T05:12:45.992Z,98449.30
2019-06-01T05:15:16.703Z,98448.48
2019-06-01T05:17:45.075Z,98445.37
2019-06-01T05:20:16.611Z,98449.94
2019-06-01T05:22:45.023Z,98451.84
2019-06-01T05:25:13.731Z,98453.70
2019-06-01T05:27:43.553Z,98450.69
2019-06-01T05:30:13.686Z,98451.07
2019-06-01T05:32:42.201Z,98453.48
2019-06-01T05:35:11.788Z,98453.03
2019-06-01T05:37:40.530Z,98452.97
2019-06-01T05:40:12.746Z,98456.44
2019-06-01T05:42:41.033Z,98462.34
2019-06-01T05:45:11.275Z,98455.73
2019-06-01T05:47:40.052Z,98462.33
2019-06-01T05:50:08.749Z,98457.83
2019-06-01T05:52:37.364Z,98458.51
2019-06-01T05:55:06.814Z,98453.33
2019-06-01T05:57:35.116Z,98452.36
2019-06-01T06:00:05.615Z,98449.55
2019-06-01T06:02:34.009Z,98450.23
2019-06-01T06:05:02.345Z,98453.20
2019-06-01T06:07:30.650Z,98455.01
2019-06-01T06:09:58.995Z,98459.16
2019-06-01T06:12:27.389Z,98462.31
2019-06-01T06:14:55.701Z,98456.86
2019-06-01T06:17:24.536Z,98449.53
2019-06-01T06:19:53.077Z,98454.23
2019-06-01T06:22:22.406Z,98448.96
2019-06-01T06:24:51.110Z,98448.23
2019-06-01T06:27:20.626Z,98453.34
2019-06-01T06:29:49.107Z,98447.09
2019-06-01T06:32:17.485Z,98452.52
2019-06-01T06:34:45.780Z,98452.73
2019-06-01T06:37:14.107Z,98450.75
2019-06-01T06:39:42.424Z,98450.98
2019-06-01T06:42:10.928Z,98448.83
2019-06-01T06:44:39.248Z,98445.96
2019-06-01T06:47:07.589Z,98442.16
2019-06-01T06:49:36.047Z,98446.08
2019-06-01T06:52:04.533Z,98442.63
2019-06-01T06:54:32.972Z,98450.70
2019-06-01T06:57:01.384Z,98454.73
2019-06-01T06:59:29.664Z,98453.64
2019-06-01T07:01:58.073Z,98455.27
2019-06-01T07:04:27.493Z,98452.89
2019-06-01T07:06:55.997Z,98448.22
2019-06-01T07:09:24.392Z,98449.73
2019-06-01T07:11:52.789Z,98451.91
2019-06-01T07:14:21.310Z,98452.95
2019-06-01T07:16:49.703Z,98444.29
2019-06-01T07:19:17.977Z,98448.73
2019-06-01T07:21:46.540Z,98450.34
2019-06-01T07:24:14.932Z,98456.70
2019-06-01T07:26:43.344Z,98457.72
2019-06-01T07:29:11.605Z,98452.95
2019-06-01T07:31:39.918Z,98455.34
2019-06-01T07:34:08.276Z,98455.69
2019-06-01T07:36:36.700Z,98461.03
2019-06-01T07:39:06.865Z,98454.39
2019-06-01T07:41:35.276Z,98461.83
2019-06-01T07:44:04.396Z,98453.23
2019-06-01T07:46:33.236Z,98451.86
2019-06-01T07:49:01.771Z,98449.42
2019-06-01T07:51:31.568Z,98454.26
2019-06-01T07:54:00.113Z,98449.81
2019-06-01T07:56:28.717Z,98444.91
2019-06-01T07:58:57.053Z,98444.98
2019-06-01T08:01:27.139Z,98444.61
2019-06-01T08:03:55.557Z,98446.05
2019-06-01T08:06:25.690Z,98448.84
2019-06-01T08:08:54.106Z,98445.64
2019-06-01T08:11:25.492Z,98442.66
2019-06-01T08:13:52.884Z,98440.77
2019-06-01T08:16:21.425Z,98432.87
2019-06-01T08:18:53.075Z,98436.87
2019-06-01T08:21:20.076Z,98428.80
2019-06-01T08:23:48.394Z,98422.13
2019-06-01T08:26:19.963Z,98430.80
2019-06-01T08:28:46.825Z,98430.81
2019-06-01T08:31:15.185Z,98425.19
2019-06-01T08:33:43.531Z,98422.99
2019-06-01T08:36:11.830Z,98415.78
2019-06-01T08:38:40.151Z,98417.03
2019-06-01T08:41:08.525Z,98415.13
2019-06-01T08:43:36.907Z,98412.12
2019-06-01T08:46:05.308Z,98412.52
2019-06-01T08:48:34.099Z,98412.72
2019-06-01T08:51:02.671Z,98407.37
2019-06-01T08:53:32.168Z,98412.91
2019-06-01T08:56:00.793Z,98413.13
2019-06-01T08:58:30.138Z,98406.22
2019-06-01T09:00:58.653Z,98407.19
2019-06-01T09:03:27.744Z,98407.01
2019-06-01T09:05:56.301Z,98407.31
2019-06-01T09:08:26.004Z,98404.11
2019-06-01T09:10:56.126Z,98394.10
2019-06-01T09:13:25.119Z,98400.72
2019-06-01T09:15:53.511Z,98400.06
2019-06-01T09:18:21.787Z,98394.81
2019-06-01T09:20:50.173Z,98394.97
2019-06-01T09:23:18.613Z,98394.95
2019-06-01T09:25:46.934Z,98386.81
2019-06-01T09:28:15.210Z,98385.75
2019-06-01T09:30:43.912Z,98388.09
2019-06-01T09:33:12.268Z,98386.87
2019-06-01T09:35:54.228Z,98387.75
2019-06-01T09:38:10.652Z,98384.61
2019-06-01T09:40:39.043Z,98386.70
2019-06-01T09:43:07.493Z,98384.52
2019-06-01T09:45:36.348Z,98378.80
2019-06-01T09:48:05.260Z,98377.16
2019-06-01T09:50:33.580Z,98380.98
2019-06-01T09:53:01.901Z,98376.20
2019-06-01T09:55:31.382Z,98377.64
2019-06-01T09:58:00.379Z,98368.78
2019-06-01T10:00:28.759Z,98371.27
2019-06-01T10:02:57.060Z,98367.25
2019-06-01T10:05:25.415Z,98367.44
2019-06-01T10:07:53.734Z,98372.11
2019-06-01T10:10:22.095Z,98370.07
2019-06-01T10:12:50.442Z,98373.41
2019-06-01T10:15:18.849Z,98370.73
2019-06-01T10:17:47.234Z,98367.10
2019-06-01T10:20:16.205Z,98368.02
2019-06-01T10:22:44.494Z,98367.65
2019-06-01T10:25:12.928Z,98370.77
2019-06-01T10:27:42.759Z,98363.89
2019-06-01T10:30:13.101Z,98364.27
2019-06-01T10:32:42.164Z,98365.92
2019-06-01T10:35:10.568Z,98355.44
2019-06-01T10:37:39.697Z,98353.52
2019-06-01T10:40:08.349Z,98348.80
2019-06-01T10:42:38.098Z,98350.80
2019-06-01T10:45:07.039Z,98352.09
2019-06-01T10:47:36.033Z,98346.14
2019-06-01T10:50:06.297Z,98354.16
2019-06-01T10:52:36.092Z,98354.39
2019-06-01T10:55:06.249Z,98354.28
2019-06-01T10:57:34.750Z,98344.70
2019-06-01T11:00:04.214Z,98341.10
2019-06-01T11:02:32.622Z,98344.08
2019-06-01T11:05:00.918Z,98335.89
2019-06-01T11:07:29.463Z,98333.01
2019-06-01T11:09:57.810Z,98330.47
2019-06-01T11:12:26.118Z,98332.45
2019-06-01T11:14:54.550Z,98326.56
2019-06-01T11:17:22.975Z,98322.55
2019-06-01T11:19:51.279Z,98326.25
2019-06-01T11:22:19.831Z,98322.28
2019-06-01T11:24:48.205Z,98318.51
2019-06-01T11:27:16.574Z,98323.39
2019-06-01T11:29:50.969Z,98319.13
2019-06-01T11:32:15.105Z,98313.66
2019-06-01T11:34:44.507Z,98320.78
2019-06-01T11:37:15.444Z,98312.50
2019-06-01T11:39:43.018Z,98312.22
2019-06-01T11:42:11.417Z,98313.98
2019-06-01T11:44:40.711Z,98308.66
2019-06-01T11:47:09.074Z,98299.23
2019-06-01T11:49:38.630Z,98291.55
2019-06-01T11:52:07.060Z,98292.73
2019-06-01T11:54:35.461Z,98291.30
2019-06-01T11:57:04.065Z,98285.13
2019-06-01T11:59:32.476Z,98279.63
2019-06-01T12:02:00.874Z,98282.98
2019-06-01T12:04:29.274Z,98273.97
2019-06-01T12:07:13.700Z,98268.34
2019-06-01T12:09:27.615Z,98267.45
2019-06-01T12:11:55.907Z,98272.64
2019-06-01T12:14:24.319Z,98270.86
2019-06-01T12:16:52.594Z,98266.61
2019-06-01T12:19:21.211Z,98265.13
2019-06-01T12:21:49.590Z,98262.28
2019-06-01T12:24:17.979Z,98257.91
2019-06-01T12:26:47.499Z,98254.86
2019-06-01T12:29:15.995Z,98253.38
2019-06-01T12:31:44.332Z,98259.53
2019-06-01T12:34:12.704Z,98258.64
2019-06-01T12:36:42.574Z,98254.28
2019-06-01T12:39:11.062Z,98251.91
2019-06-01T12:41:39.781Z,98249.32
2019-06-01T12:44:09.953Z,98244.77
2019-06-01T12:46:39.676Z,98242.88
2019-06-01T12:49:08.261Z,98242.28
2019-06-01T12:51:36.658Z,98239.20
2019-06-01T12:54:09.547Z,98242.63
2019-06-01T12:56:37.949Z,98227.84
2019-06-01T12:59:06.304Z,98228.32
2019-06-01T13:01:34.712Z,98230.70
2019-06-01T13:04:03.184Z,98228.99
2019-06-01T13:06:31.566Z,98225.20
2019-06-01T13:08:59.950Z,98216.94
2019-06-01T13:11:28.358Z,98213.34
2019-06-01T13:13:56.753Z,98212.14
2019-06-01T13:16:25.254Z,98205.44
2019-06-01T13:18:53.920Z,98209.98
2019-06-01T13:21:22.421Z,98205.55
2019-06-01T13:23:51.606Z,98203.04
2019-06-01T13:26:19.967Z,98197.91
2019-06-01T13:28:48.376Z,98199.92
2019-06-01T13:31:16.682Z,98197.81
2019-06-01T13:33:46.373Z,98194.39
2019-06-01T13:36:14.745Z,98190.43
2019-06-01T13:38:43.071Z,98188.06
2019-06-01T13:41:11.559Z,98191.24
2019-06-01T13:43:39.925Z,98183.84
2019-06-01T13:46:08.209Z,98186.86
2019-06-01T13:48:36.599Z,98177.89
2019-06-01T13:51:05.042Z,98179.28
2019-06-01T13:53:33.429Z,98177.61
2019-06-01T13:56:01.731Z,98168.44
2019-06-01T13:58:30.071Z,98168.55
2019-06-01T14:00:58.449Z,98161.26
2019-06-01T14:03:26.894Z,98166.02
2019-06-01T14:05:55.443Z,98160.54
2019-06-01T14:08:29.036Z,98163.90
2019-06-01T14:10:53.857Z,98165.15
2019-06-01T14:13:22.205Z,98158.13
2019-06-01T14:15:51.569Z,98152.23
2019-06-01T14:18:20.148Z,98156.30
2019-06-01T14:20:49.654Z,98151.33
2019-06-01T14:23:18.288Z,98150.63
2019-06-01T14:25:46.588Z,98151.92
2019-06-01T14:28:14.910Z,98148.80
2019-06-01T14:30:43.290Z,98142.78
2019-06-01T14:33:11.580Z,98134.08
2019-06-01T14:35:40.027Z,98132.55
2019-06-01T14:38:08.408Z,98133.69
2019-06-01T14:40:36.737Z,98130.92
2019-06-01T14:43:05.104Z,98128.19
2019-06-01T14:45:33.524Z,98129.97
2019-06-01T14:48:01.851Z,98131.22
2019-06-01T14:50:30.243Z,98126.99
2019-06-01T14:52:58.608Z,98122.30
2019-06-01T14:55:27.005Z,98121.13
2019-06-01T14:57:56.008Z,98120.30
2019-06-01T15:00:24.388Z,98121.90
2019-06-01T15:02:52.762Z,98115.02
2019-06-01T15:05:21.156Z,98117.33
2019-06-01T15:07:50.161Z,98114.30
2019-06-01T15:10:18.916Z,98119.14
2019-06-01T15:12:51.542Z,98112.86
2019-06-01T15:15:17.535Z,98112.76
2019-06-01T15:17:45.904Z,98110.00
2019-06-01T15:20:14.566Z,98107.12
2019-06-01T15:22:42.994Z,98111.89
2019-06-01T15:25:11.581Z,98108.93
2019-06-01T15:27:39.986Z,98107.60
2019-06-01T15:30:12.549Z,98102.81
2019-06-01T15:32:40.906Z,98105.16
2019-06-01T15:35:09.791Z,98099.61
2019-06-01T15:37:38.230Z,98100.44
2019-06-01T15:40:10.432Z,98097.12
2019-06-01T15:42:38.864Z,98091.16
2019-06-01T15:45:07.951Z,98097.48
2019-06-01T15:47:36.429Z,98101.64
2019-06-01T15:50:07.612Z,98092.97
2019-06-01T15:52:36.018Z,98091.37
2019-06-01T15:55:06.027Z,98091.98
2019-06-01T15:57:34.758Z,98094.16
2019-06-01T16:00:04.999Z,98089.24
2019-06-01T16:02:33.411Z,98090.02
2019-06-01T16:05:01.698Z,98089.23
2019-06-01T16:07:30.101Z,98091.20
2019-06-01T16:09:59.378Z,98093.77
2019-06-01T16:12:27.923Z,98087.05
2019-06-01T16:14:57.587Z,98086.84
2019-06-01T16:17:26.065Z,98092.18
2019-06-01T16:19:55.780Z,98081.12
2019-06-01T16:22:24.343Z,98079.14
2019-06-01T16:24:53.971Z,98074.60
2019-06-01T16:27:22.461Z,98076.41
2019-06-01T16:29:50.829Z,98076.41
2019-06-01T16:32:19.128Z,98068.69
2019-06-01T16:34:47.561Z,98077.58
2019-06-01T16:37:15.932Z,98068.11
2019-06-01T16:39:58.259Z,98069.27
2019-06-01T16:42:14.374Z,98067.49
2019-06-01T16:44:42.714Z,98071.41
2019-06-01T16:47:11.113Z,98062.12
2019-06-01T16:49:39.488Z,98060.55
2019-06-01T16:52:07.860Z,98059.98
2019-06-01T16:54:36.227Z,98057.63
2019-06-01T16:57:05.329Z,98060.62
2019-06-01T16:59:33.854Z,98054.45
2019-06-01T17:02:03.393Z,98052.30
2019-06-01T17:04:31.840Z,98050.32
2019-06-01T17:07:00.694Z,98056.05
2019-06-01T17:09:29.190Z,98052.88
2019-06-01T17:11:58.677Z,98057.41
2019-06-01T17:14:27.156Z,98058.80
2019-06-01T17:16:57.081Z,98060.94
2019-06-01T17:19:25.566Z,98052.25
2019-06-01T17:21:53.990Z,98053.59
2019-06-01T17:24:22.391Z,98054.98
2019-06-01T17:26:50.766Z,98055.19
2019-06-01T17:29:19.090Z,98055.19
2019-06-01T17:31:54.443Z,98059.31
2019-06-01T17:34:17.594Z,98059.69
2019-06-01T17:36:45.963Z,98055.72
2019-06-01T17:39:14.751Z,98047.84
2019-06-01T17:41:43.138Z,98049.20
2019-06-01T17:44:11.447Z,98046.42
2019-06-01T17:46:53.025Z,98047.41
2019-06-01T17:49:09.887Z,98043.06
2019-06-01T17:51:38.173Z,98048.59
2019-06-01T17:54:08.034Z,98034.41
2019-06-01T17:56:36.762Z,98046.61
2019-06-01T17:59:05.482Z,98043.66
2019-06-01T18:01:33.811Z,98047.22
2019-06-01T18:04:02.170Z,98047.61
2019-06-01T18:06:30.593Z,98045.00
2019-06-01T18:08:58.909Z,98040.81
2019-06-01T18:11:27.399Z,98043.11
2019-06-01T18:13:55.734Z,98042.47
2019-06-01T18:16:24.140Z,98040.28
2019-06-01T18:18:52.436Z,98042.41
2019-06-01T18:21:20.902Z,98041.41
2019-06-01T18:23:49.426Z,98043.75
2019-06-01T18:26:17.747Z,98044.55
2019-06-01T18:28:46.113Z,98039.23
2019-06-01T18:31:20.316Z,98040.03
2019-06-01T18:33:48.689Z,98036.27
2019-06-01T18:36:17.020Z,98035.28
2019-06-01T18:38:45.312Z,98040.80
2019-06-01T18:41:18.376Z,98038.42
2019-06-01T18:43:43.858Z,98039.59
2019-06-01T18:46:12.483Z,98035.61
2019-06-01T18:48:40.865Z,98029.25
2019-06-01T18:51:10.133Z,98026.44
2019-06-01T18:53:38.834Z,98027.93
2019-06-01T18:56:08.155Z,98028.10
2019-06-01T18:58:36.622Z,98025.91
2019-06-01T19:01:06.379Z,98028.04
2019-06-01T19:03:34.960Z,98022.12
2019-06-01T19:06:03.294Z,98024.84
2019-06-01T19:08:31.597Z,98027.18
2019-06-01T19:10:59.999Z,98033.83
2019-06-01T19:13:28.292Z,98039.09
2019-06-01T19:15:56.875Z,98036.50
2019-06-01T19:18:25.183Z,98034.09
2019-06-01T19:20:53.594Z,98036.18
2019-06-01T19:23:22.981Z,98033.77
2019-06-01T19:25:51.490Z,98040.73
2019-06-01T19:28:19.839Z,98041.43
2019-06-01T19:30:48.325Z,98043.14
2019-06-01T19:33:18.937Z,98042.52
2019-06-01T19:35:46.732Z,98047.17
2019-06-01T19:38:15.584Z,98049.45
2019-06-01T19:40:44.083Z,98051.56
2019-06-01T19:43:13.468Z,98055.97
2019-06-01T19:45:41.827Z,98051.95
2019-06-01T19:48:10.312Z,98055.77
2019-06-01T19:50:38.685Z,98059.19
2019-06-01T19:53:08.701Z,98052.31
2019-06-01T19:55:37.243Z,98060.06
2019-06-01T19:58:05.651Z,98067.47
2019-06-01T20:00:34.036Z,98068.61
2019-06-01T20:03:02.602Z,98081.43
2019-06-01T20:05:30.999Z,98076.05
2019-06-01T20:07:59.549Z,98078.80
2019-06-01T20:10:27.941Z,98077.45
2019-06-01T20:12:56.299Z,98084.31
2019-06-01T20:15:24.638Z,98078.00
2019-06-01T20:17:53.105Z,98078.73
2019-06-01T20:20:21.590Z,98079.67
2019-06-01T20:22:50.100Z,98087.05
2019-06-01T20:25:20.115Z,98084.73
2019-06-01T20:27:48.409Z,98087.17
2019-06-01T20:30:17.975Z,98088.33
2019-06-01T20:32:46.342Z,98087.72
2019-06-01T20:35:15.966Z,98085.23
2019-06-01T20:37:44.484Z,98090.67
2019-06-01T20:40:14.108Z,98095.16
2019-06-01T20:42:42.567Z,98090.24
2019-06-01T20:45:12.542Z,98087.78
2019-06-01T20:47:40.923Z,98088.74
2019-06-01T20:50:10.145Z,98085.98
2019-06-01T20:52:38.607Z,98092.50
2019-06-01T20:55:07.852Z,98092.07
2019-06-01T20:57:36.381Z,98094.76
2019-06-01T21:00:11.135Z,98101.47
2019-06-01T21:02:39.899Z,98101.94
2019-06-01T21:05:08.677Z,97979.68
2019-06-01T21:07:37.335Z,98099.39
2019-06-01T21:10:07.386Z,98099.02
2019-06-01T21:12:44.761Z,98090.82
2019-06-01T21:15:06.396Z,98095.72
2019-06-01T21:17:34.692Z,98094.14
2019-06-01T21:20:05.247Z,98093.20
2019-06-01T21:22:33.616Z,98099.61
2019-06-01T21:25:02.052Z,98100.04
2019-06-01T21:27:30.437Z,98099.16
2019-06-01T21:29:58.719Z,98099.83
2019-06-01T21:32:27.058Z,98094.23
2019-06-01T21:34:55.427Z,98100.50
2019-06-01T21:37:24.006Z,98101.87
2019-06-01T21:39:52.379Z,98113.23
2019-06-01T21:42:21.719Z,98108.02
2019-06-01T21:44:50.190Z,98106.77
2019-06-01T21:47:19.612Z,98112.45
2019-06-01T21:49:48.019Z,98105.52
2019-06-01T21:52:16.332Z,98111.34
2019-06-01T21:54:44.742Z,98106.91
2019-06-01T21:57:13.203Z,98108.91
2019-06-01T21:59:41.811Z,98103.68
2019-06-01T22:02:10.448Z,98108.18
2019-06-01T22:04:38.988Z,98095.42
2019-06-01T22:07:07.321Z,98100.77
2019-06-01T22:09:35.640Z,98102.61
2019-06-01T22:12:04.201Z,98102.50
2019-06-01T22:14:32.504Z,98099.53
2019-06-01T22:17:01.171Z,98097.74
2019-06-01T22:19:29.588Z,98102.98
2019-06-01T22:21:57.905Z,98098.91
2019-06-01T22:24:26.202Z,98096.75
2019-06-01T22:26:54.574Z,98097.83
2019-06-01T22:29:24.312Z,98101.47
2019-06-01T22:31:52.758Z,98095.33
2019-06-01T22:34:21.129Z,98096.62
2019-06-01T22:36:49.701Z,98093.55
2019-06-01T22:39:19.372Z,98095.87
2019-06-01T22:41:48.068Z,98098.83
2019-06-01T22:44:16.393Z,98096.22
2019-06-01T22:46:44.845Z,98093.38
2019-06-01T22:49:13.247Z,98086.31
2019-06-01T22:51:41.524Z,98095.77
2019-06-01T22:54:09.867Z,98097.84
2019-06-01T22:56:38.212Z,98088.36
2019-06-01T22:59:06.603Z,98091.92
2019-06-01T23:01:34.907Z,98085.74
2019-06-01T23:04:03.228Z,98085.09
2019-06-01T23:06:31.529Z,98084.29
2019-06-01T23:08:59.860Z,98085.66
2019-06-01T23:11:29.604Z,98074.05
2019-06-01T23:13:58.147Z,98079.73
2019-06-01T23:16:27.591Z,98080.10
2019-06-01T23:18:55.976Z,98067.23
2019-06-01T23:21:24.293Z,98075.42
2019-06-01T23:23:52.619Z,98074.06
2019-06-01T23:26:22.090Z,98068.95
2019-06-01T23:28:50.624Z,98068.59
2019-06-01T23:31:18.995Z,98071.44
2019-06-01T23:33:47.381Z,98068.70
2019-06-01T23:36:15.747Z,98068.83
2019-06-01T23:38:44.064Z,98070.97
2019-06-01T23:41:12.391Z,98068.48
2019-06-01T23:43:40.739Z,98058.71
2019-06-01T23:46:09.323Z,98059.84
2019-06-01T23:48:37.608Z,98062.75
2019-06-01T23:51:06.014Z,98055.81
2019-06-01T23:53:34.411Z,98059.09
2019-06-01T23:56:02.863Z,98056.23
2019-06-01T23:58:32.519Z,98058.63
